createdAt,value
2023-05-10T00:00:48.723Z,10.38
2023-05-10T00:03:15.383Z,9.80
2023-05-10T00:05:42.174Z,8.95
2023-05-10T00:08:08.949Z,9.93
2023-05-10T00:10:35.533Z,7.88
2023-05-10T00:13:02.248Z,11.20
2023-05-10T00:15:28.953Z,8.10
2023-05-10T00:17:56.909Z,10.40
2023-05-10T00:20:23.741Z,8.27
2023-05-10T00:22:50.473Z,8.40
2023-05-10T00:25:17.270Z,6.05
2023-05-10T00:27:43.877Z,7.25
2023-05-10T00:30:11.789Z,9.95
2023-05-10T00:32:38.454Z,6.72
2023-05-10T00:35:07.261Z,14.38
2023-05-10T00:37:33.908Z,8.93
2023-05-10T00:40:00.499Z,10.55
2023-05-10T00:42:27.413Z,11.02
2023-05-10T00:44:55.150Z,8.77
2023-05-10T00:47:22.043Z,8.75
2023-05-10T00:49:48.847Z,14.73
2023-05-10T00:52:16.900Z,9.10
2023-05-10T00:54:43.659Z,9.77
2023-05-10T00:57:11.110Z,11.02
2023-05-10T00:59:37.813Z,10.88
2023-05-10T01:02:04.608Z,12.13
2023-05-10T01:04:31.252Z,9.73
2023-05-10T01:06:57.859Z,10.75
2023-05-10T01:09:25.972Z,11.02
2023-05-10T01:11:53.140Z,10.15
2023-05-10T01:14:20.496Z,10.60
2023-05-10T01:16:49.362Z,13.88
2023-05-10T01:19:22.873Z,9.95
2023-05-10T01:21:57.129Z,18.15
2023-05-10T01:24:46.460Z,16.35
2023-05-10T01:27:26.269Z,19.65
2023-05-10T01:30:36.061Z,19.23
2023-05-10T01:33:12.060Z,25.60
2023-05-10T01:35:42.622Z,18.73
2023-05-10T01:38:17.206Z,19.88
2023-05-10T01:40:53.651Z,21.25
2023-05-10T01:43:26.685Z,22.30
2023-05-10T01:46:01.993Z,19.05
2023-05-10T01:48:31.891Z,19.35
2023-05-10T01:51:00.635Z,21.15
2023-05-10T01:53:28.597Z,20.02
2023-05-10T01:55:57.033Z,24.02
2023-05-10T01:58:28.205Z,28.50
2023-05-10T02:00:55.574Z,24.10
2023-05-10T02:03:24.974Z,28.38
2023-05-10T02:05:54.599Z,27.00
2023-05-10T02:08:23.485Z,27.33
2023-05-10T02:10:52.923Z,28.83
2023-05-10T02:13:20.448Z,27.00
2023-05-10T02:15:48.965Z,30.95
2023-05-10T02:18:16.658Z,35.38
2023-05-10T02:20:46.317Z,28.48
2023-05-10T02:23:15.146Z,37.30
2023-05-10T02:25:43.984Z,32.63
2023-05-10T02:28:12.681Z,33.50
2023-05-10T02:30:40.341Z,37.97
2023-05-10T02:33:07.438Z,39.60
2023-05-10T02:35:35.786Z,35.55
2023-05-10T02:38:03.225Z,42.92
2023-05-10T02:40:33.414Z,48.03
2023-05-10T02:43:03.315Z,40.70
2023-05-10T02:45:33.018Z,49.33
2023-05-10T02:48:00.398Z,45.53
2023-05-10T02:50:28.814Z,49.90
2023-05-10T02:53:00.560Z,48.28
2023-05-10T02:55:33.874Z,50.28
2023-05-10T02:58:02.507Z,49.60
2023-05-10T03:00:29.415Z,50.67
2023-05-10T03:02:56.442Z,53.15
2023-05-10T03:05:32.558Z,58.03
2023-05-10T03:08:02.859Z,53.50
2023-05-10T03:10:46.385Z,54.00
2023-05-10T03:13:34.198Z,50.05
2023-05-10T03:16:16.012Z,49.90
2023-05-10T03:21:45.871Z,52.00
2023-05-10T03:24:16.633Z,49.10
2023-05-10T03:26:50.228Z,52.38
2023-05-10T03:29:19.157Z,48.63
2023-05-10T03:31:47.608Z,53.22
2023-05-10T03:34:34.695Z,46.63
2023-05-10T03:37:20.313Z,47.13
2023-05-10T03:39:51.266Z,48.53
2023-05-10T03:42:43.382Z,55.90
2023-05-10T03:45:39.279Z,50.33
2023-05-10T03:48:11.896Z,52.60
2023-05-10T03:51:06.371Z,60.10
2023-05-10T03:54:03.974Z,58.67
2023-05-10T03:56:31.142Z,59.45
2023-05-10T03:58:59.612Z,57.85
2023-05-10T04:01:26.404Z,65.25
2023-05-10T04:03:53.091Z,61.08
2023-05-10T04:06:19.842Z,63.20
2023-05-10T04:08:46.424Z,64.28
2023-05-10T04:11:13.411Z,63.83
2023-05-10T04:13:40.167Z,65.55
2023-05-10T04:16:08.305Z,64.15
2023-05-10T04:18:35.003Z,62.63
2023-05-10T04:21:01.699Z,71.15
2023-05-10T04:23:28.320Z,71.90
2023-05-10T04:26:00.433Z,64.97
2023-05-10T04:28:26.977Z,63.58
2023-05-10T04:30:53.627Z,66.70
2023-05-10T04:33:21.626Z,69.63
2023-05-10T04:35:48.169Z,65.80
2023-05-10T04:38:14.811Z,68.88
2023-05-10T04:40:41.470Z,78.22
2023-05-10T04:43:08.047Z,67.88
2023-05-10T04:45:37.885Z,60.97
2023-05-10T04:48:05.258Z,65.97
2023-05-10T04:50:33.163Z,70.05
2023-05-10T04:53:00.049Z,66.45
2023-05-10T04:55:26.671Z,71.35
2023-05-10T04:57:53.553Z,72.03
2023-05-10T05:00:20.618Z,69.63
2023-05-10T05:02:47.218Z,73.32
2023-05-10T05:05:13.896Z,74.13
2023-05-10T05:07:41.868Z,75.18
2023-05-10T05:10:09.722Z,79.72
2023-05-10T05:12:36.504Z,67.43
2023-05-10T05:15:03.514Z,72.00
2023-05-10T05:17:31.261Z,72.65
2023-05-10T05:20:00.807Z,76.05
2023-05-10T05:22:27.496Z,73.05
2023-05-10T05:24:55.518Z,74.85
2023-05-10T05:27:22.201Z,73.85
2023-05-10T05:29:48.848Z,73.30
2023-05-10T05:32:15.356Z,73.80
2023-05-10T05:34:41.998Z,77.57
2023-05-10T05:37:08.638Z,76.95
2023-05-10T05:39:36.923Z,73.32
2023-05-10T05:42:05.211Z,75.10
2023-05-10T05:44:31.825Z,70.55
2023-05-10T05:46:58.491Z,73.15
2023-05-10T05:49:25.127Z,68.35
2023-05-10T05:51:51.845Z,71.50
2023-05-10T05:54:18.485Z,74.63
2023-05-10T05:56:45.167Z,71.20
2023-05-10T05:59:13.090Z,72.18
2023-05-10T06:01:40.276Z,72.45
2023-05-10T06:04:07.158Z,64.38
2023-05-10T06:06:33.923Z,63.38
2023-05-10T06:09:00.544Z,64.70
2023-05-10T06:11:27.107Z,62.20
2023-05-10T06:13:53.761Z,59.92
2023-05-10T06:16:21.718Z,56.92
2023-05-10T06:18:48.360Z,58.15
2023-05-10T06:21:14.999Z,59.55
2023-05-10T06:23:41.658Z,61.85
2023-05-10T06:26:08.291Z,50.90
2023-05-10T06:28:34.984Z,56.58
2023-05-10T06:31:01.684Z,50.75
2023-05-10T06:33:29.639Z,55.88
2023-05-10T06:35:56.203Z,49.97
2023-05-10T06:38:22.777Z,52.45
2023-05-10T06:40:49.426Z,47.67
2023-05-10T06:43:16.178Z,51.05
2023-05-10T06:45:42.898Z,46.88
2023-05-10T06:48:09.643Z,46.05
2023-05-10T06:50:37.620Z,45.58
2023-05-10T06:53:04.171Z,50.55
2023-05-10T06:55:30.811Z,39.13
2023-05-10T06:57:57.450Z,33.85
2023-05-10T07:00:24.226Z,33.60
2023-05-10T07:02:50.929Z,33.05
2023-05-10T07:05:17.766Z,32.08
2023-05-10T07:07:45.991Z,35.70
2023-05-10T07:10:12.593Z,35.17
2023-05-10T07:12:39.294Z,42.88
2023-05-10T07:15:07.328Z,34.42
2023-05-10T07:17:34.031Z,31.00
2023-05-10T07:20:01.704Z,27.92
2023-05-10T07:22:28.365Z,31.33
2023-05-10T07:24:56.515Z,31.90
2023-05-10T07:27:23.185Z,32.30
2023-05-10T07:29:49.820Z,28.45
2023-05-10T07:32:16.425Z,30.58
2023-05-10T07:34:43.090Z,32.80
2023-05-10T07:37:09.825Z,32.92
2023-05-10T07:39:36.496Z,32.42
2023-05-10T07:42:04.619Z,29.58
2023-05-10T07:44:31.237Z,32.88
2023-05-10T07:46:57.810Z,29.63
2023-05-10T07:49:24.434Z,31.10
2023-05-10T07:51:51.077Z,34.67
2023-05-10T07:54:17.853Z,30.48
2023-05-10T07:56:44.476Z,30.38
2023-05-10T07:59:16.303Z,31.15
2023-05-10T08:01:43.049Z,27.95
2023-05-10T08:04:09.805Z,35.10
2023-05-10T08:06:36.570Z,36.25
2023-05-10T08:09:03.316Z,32.17
2023-05-10T08:11:29.892Z,30.88
2023-05-10T08:13:56.442Z,32.75
2023-05-10T08:16:24.502Z,35.53
2023-05-10T08:18:51.196Z,31.40
2023-05-10T08:21:17.858Z,35.17
2023-05-10T08:23:44.522Z,30.05
2023-05-10T08:26:11.240Z,30.42
2023-05-10T08:28:37.874Z,32.60
2023-05-10T08:31:05.387Z,32.92
2023-05-10T08:33:33.522Z,31.10
2023-05-10T08:36:00.160Z,34.17
2023-05-10T08:38:26.756Z,33.83
2023-05-10T08:40:55.795Z,32.92
2023-05-10T08:43:22.781Z,31.25
2023-05-10T08:45:51.555Z,30.58
2023-05-10T08:48:18.559Z,29.98
2023-05-10T08:50:48.286Z,25.73
2023-05-10T08:53:17.194Z,25.95
2023-05-10T08:55:46.799Z,23.90
2023-05-10T08:58:13.446Z,25.20
2023-05-10T09:00:40.850Z,31.02
2023-05-10T09:03:07.478Z,23.55
2023-05-10T09:05:34.146Z,21.35
2023-05-10T09:08:02.147Z,23.08
2023-05-10T09:10:30.693Z,22.35
2023-05-10T09:12:59.362Z,24.45
2023-05-10T09:15:27.217Z,22.58
2023-05-10T09:17:55.276Z,21.67
2023-05-10T09:20:21.918Z,22.75
2023-05-10T09:22:48.848Z,19.08
2023-05-10T09:25:17.985Z,22.38
2023-05-10T09:27:47.228Z,22.67
2023-05-10T09:30:17.383Z,23.20
2023-05-10T09:32:45.643Z,17.70
2023-05-10T09:35:14.115Z,19.17
2023-05-10T09:37:41.069Z,20.15
2023-05-10T09:40:08.989Z,18.77
2023-05-10T09:42:36.931Z,25.33
2023-05-10T09:45:04.831Z,21.48
2023-05-10T09:47:33.129Z,22.20
2023-05-10T09:49:59.738Z,21.75
2023-05-10T09:52:26.264Z,28.33
2023-05-10T09:54:54.281Z,26.30
2023-05-10T09:57:22.104Z,21.23
2023-05-10T09:59:50.528Z,23.80
2023-05-10T10:02:17.472Z,26.38
2023-05-10T10:04:44.053Z,23.10
2023-05-10T10:07:10.603Z,22.40
2023-05-10T10:09:37.216Z,22.40
2023-05-10T10:12:04.370Z,23.63
2023-05-10T10:14:31.135Z,21.08
2023-05-10T10:19:33.638Z,22.80
2023-05-10T10:22:01.244Z,20.40
2023-05-10T10:24:27.811Z,21.83
2023-05-10T10:27:00.893Z,21.63
2023-05-10T10:29:38.858Z,17.55
2023-05-10T10:32:20.400Z,18.95
2023-05-10T10:34:47.544Z,20.90
2023-05-10T10:37:14.441Z,18.63
2023-05-10T10:39:40.999Z,17.80
2023-05-10T10:42:07.660Z,22.73
2023-05-10T10:44:37.284Z,15.75
2023-05-10T10:47:06.379Z,18.38
2023-05-10T10:49:39.195Z,17.23
2023-05-10T10:52:23.683Z,13.77
2023-05-10T10:54:54.079Z,14.25
2023-05-10T10:57:21.289Z,14.20
2023-05-10T10:59:48.186Z,16.45
2023-05-10T11:02:43.672Z,17.10
2023-05-10T11:05:45.764Z,16.73
2023-05-10T11:08:19.626Z,15.18
2023-05-10T11:11:05.164Z,18.75
2023-05-10T11:13:35.109Z,19.00
2023-05-10T11:16:15.164Z,16.08
2023-05-10T11:18:52.654Z,19.33
2023-05-10T11:21:19.625Z,19.73
2023-05-10T11:23:51.920Z,19.90
2023-05-10T11:26:18.946Z,23.20
2023-05-10T11:28:46.753Z,24.73
2023-05-10T11:31:15.094Z,23.25
2023-05-10T11:33:45.017Z,24.15
2023-05-10T11:36:12.744Z,26.58
2023-05-10T11:38:39.278Z,27.25
2023-05-10T11:41:09.310Z,27.10
2023-05-10T11:43:36.021Z,25.98
2023-05-10T11:46:03.097Z,30.48
2023-05-10T11:48:30.796Z,24.52
2023-05-10T11:50:57.540Z,24.95
2023-05-10T11:53:25.876Z,27.73
2023-05-10T11:55:52.663Z,26.23
2023-05-10T11:58:20.744Z,22.60
2023-05-10T12:00:48.111Z,21.25
2023-05-10T12:03:14.761Z,21.13
2023-05-10T12:05:42.857Z,22.67
2023-05-10T12:08:13.865Z,22.48
2023-05-10T12:10:40.475Z,19.83
2023-05-10T12:13:12.100Z,21.95
2023-05-10T12:15:40.124Z,19.48
2023-05-10T12:18:08.812Z,21.25
2023-05-10T12:20:35.643Z,18.00
2023-05-10T12:23:03.281Z,17.92
2023-05-10T12:25:31.797Z,15.95
2023-05-10T12:28:00.407Z,16.83
2023-05-10T12:30:28.150Z,18.50
2023-05-10T12:33:01.260Z,14.45
2023-05-10T12:35:31.319Z,13.43
2023-05-10T12:37:57.962Z,13.52
2023-05-10T12:40:24.546Z,12.63
2023-05-10T12:42:51.662Z,14.52
2023-05-10T12:45:19.035Z,13.63
2023-05-10T12:47:45.587Z,10.88
2023-05-10T12:50:13.643Z,14.18
2023-05-10T12:52:40.203Z,12.85
2023-05-10T12:55:07.387Z,13.98
2023-05-10T12:57:33.934Z,12.95
2023-05-10T13:00:00.510Z,14.13
2023-05-10T13:02:27.177Z,13.55
2023-05-10T13:04:53.965Z,15.23
2023-05-10T13:07:21.942Z,14.32
2023-05-10T13:09:48.665Z,11.35
2023-05-10T13:12:15.233Z,8.30
2023-05-10T13:14:41.852Z,9.50
2023-05-10T13:17:08.532Z,12.23
2023-05-10T13:19:35.425Z,9.57
2023-05-10T13:22:01.978Z,13.32
2023-05-10T13:24:29.994Z,20.42
2023-05-10T13:26:56.642Z,13.50
2023-05-10T13:29:23.222Z,16.67
2023-05-10T13:31:49.939Z,16.13
2023-05-10T13:34:16.670Z,12.90
2023-05-10T13:36:43.267Z,15.05
2023-05-10T13:39:09.862Z,12.32
2023-05-10T13:41:37.838Z,10.65
2023-05-10T13:44:04.616Z,11.43
2023-05-10T13:46:31.266Z,12.85
2023-05-10T13:48:57.914Z,11.63
2023-05-10T13:51:24.520Z,13.38
2023-05-10T13:53:51.134Z,12.13
2023-05-10T13:56:17.679Z,11.85
2023-05-10T13:58:45.638Z,15.40
2023-05-10T14:01:12.250Z,14.48
2023-05-10T14:03:39.020Z,13.10
2023-05-10T14:06:05.981Z,13.07
2023-05-10T14:08:32.571Z,13.98
2023-05-10T14:10:59.114Z,12.32
2023-05-10T14:13:25.761Z,15.77
2023-05-10T14:15:54.630Z,17.48
2023-05-10T14:18:21.989Z,24.13
2023-05-10T14:20:48.562Z,21.08
2023-05-10T14:23:15.244Z,18.45
2023-05-10T14:25:42.016Z,19.40
2023-05-10T14:28:08.691Z,15.27
2023-05-10T14:30:35.311Z,14.20
2023-05-10T14:33:03.602Z,16.67
2023-05-10T14:35:30.569Z,15.50
2023-05-10T14:37:57.170Z,15.88
2023-05-10T14:40:23.703Z,17.85
2023-05-10T14:42:50.959Z,11.65
2023-05-10T14:45:18.011Z,14.98
2023-05-10T14:47:44.798Z,12.75
2023-05-10T14:50:21.511Z,15.45
2023-05-10T14:52:58.770Z,14.50
2023-05-10T14:55:25.477Z,14.13
2023-05-10T14:57:52.092Z,15.27
2023-05-10T15:00:19.411Z,18.65
2023-05-10T15:02:46.684Z,14.95
2023-05-10T15:05:15.953Z,14.18
2023-05-10T15:07:43.024Z,14.15
2023-05-10T15:10:10.279Z,15.35
2023-05-10T15:12:36.812Z,9.23
2023-05-10T15:15:03.721Z,9.00
2023-05-10T15:17:30.390Z,9.52
2023-05-10T15:19:56.992Z,10.30
2023-05-10T15:22:25.049Z,9.88
2023-05-10T15:24:51.585Z,9.30
2023-05-10T15:27:18.278Z,10.48
2023-05-10T15:29:44.883Z,6.65
2023-05-10T15:32:11.430Z,6.80
2023-05-10T15:34:38.018Z,6.55
2023-05-10T15:37:04.632Z,6.88
2023-05-10T15:39:32.572Z,6.75
2023-05-10T15:41:59.165Z,8.75
2023-05-10T15:44:25.894Z,6.40
2023-05-10T15:46:52.452Z,9.65
2023-05-10T15:49:19.081Z,9.48
2023-05-10T15:51:45.670Z,9.10
2023-05-10T15:54:12.222Z,7.15
2023-05-10T15:56:40.179Z,9.73
2023-05-10T15:59:06.750Z,9.07
2023-05-10T16:01:33.409Z,8.13
2023-05-10T16:04:00.404Z,14.85
2023-05-10T16:06:27.112Z,10.80
2023-05-10T16:08:54.702Z,9.95
2023-05-10T16:11:21.596Z,10.00
2023-05-10T16:13:49.649Z,10.70
2023-05-10T16:16:16.490Z,8.73
2023-05-10T16:18:43.250Z,8.25
2023-05-10T16:21:09.989Z,9.60
2023-05-10T16:23:36.703Z,7.47
2023-05-10T16:26:03.327Z,4.65
2023-05-10T16:28:30.105Z,5.75
2023-05-10T16:30:58.040Z,7.82
2023-05-10T16:33:24.969Z,10.02
2023-05-10T16:35:51.985Z,7.80
2023-05-10T16:38:18.729Z,7.45
2023-05-10T16:40:45.319Z,6.03
2023-05-10T16:43:11.881Z,6.07
2023-05-10T16:45:38.439Z,7.07
2023-05-10T16:48:06.875Z,6.80
2023-05-10T16:50:33.536Z,6.22
2023-05-10T16:53:00.126Z,4.50
2023-05-10T16:55:26.752Z,7.65
2023-05-10T16:57:53.395Z,5.22
2023-05-10T17:00:20.242Z,15.65
2023-05-10T17:02:47.126Z,3.63
2023-05-10T17:05:15.421Z,3.63
2023-05-10T17:07:42.215Z,3.35
2023-05-10T17:10:09.624Z,3.50
2023-05-10T17:12:36.391Z,3.22
2023-05-10T17:15:03.310Z,3.58
2023-05-10T17:17:30.053Z,3.03
2023-05-10T17:19:56.655Z,3.60
2023-05-10T17:22:24.892Z,2.88
2023-05-10T17:24:51.906Z,2.53
2023-05-10T17:27:18.444Z,2.92
2023-05-10T17:29:45.077Z,3.97
2023-05-10T17:32:11.701Z,5.05
2023-05-10T17:34:38.661Z,5.68
2023-05-10T17:37:05.315Z,6.18
2023-05-10T17:39:34.284Z,6.30
2023-05-10T17:42:00.847Z,5.25
2023-05-10T17:44:27.417Z,5.70
2023-05-10T17:46:54.028Z,4.50
2023-05-10T17:49:20.741Z,4.60
2023-05-10T17:51:47.526Z,4.40
2023-05-10T17:54:14.062Z,4.45
2023-05-10T17:56:42.229Z,4.45
2023-05-10T17:59:08.772Z,5.95
2023-05-10T18:01:35.487Z,4.30
2023-05-10T18:04:02.330Z,4.05
2023-05-10T18:06:29.340Z,5.18
2023-05-10T18:08:56.040Z,4.97
2023-05-10T18:11:24.884Z,4.78
2023-05-10T18:13:53.365Z,6.50
2023-05-10T18:16:20.284Z,5.30
2023-05-10T18:18:47.457Z,5.40
2023-05-10T18:21:14.249Z,9.00
2023-05-10T18:23:41.149Z,9.02
2023-05-10T18:26:08.083Z,5.80
2023-05-10T18:28:34.837Z,10.73
2023-05-10T18:31:03.094Z,7.15
2023-05-10T18:33:29.787Z,6.30
2023-05-10T18:35:58.467Z,7.22
2023-05-10T18:38:25.538Z,7.32
2023-05-10T18:40:53.945Z,7.15
2023-05-10T18:43:20.734Z,9.43
2023-05-10T18:45:47.576Z,6.70
2023-05-10T18:48:15.834Z,7.18
2023-05-10T18:50:42.697Z,7.38
2023-05-10T18:53:09.387Z,8.70
2023-05-10T18:55:36.105Z,10.15
2023-05-10T18:58:02.937Z,11.13
2023-05-10T19:00:32.020Z,9.48
2023-05-10T19:03:01.997Z,8.43
2023-05-10T19:05:30.531Z,9.07
2023-05-10T19:08:00.295Z,9.10
2023-05-10T19:10:31.106Z,8.80
2023-05-10T19:12:59.850Z,11.00
2023-05-10T19:15:29.253Z,8.90
2023-05-10T19:18:04.640Z,8.43
2023-05-10T19:20:35.053Z,8.50
2023-05-10T19:23:09.726Z,9.20
2023-05-10T19:25:37.326Z,15.23
2023-05-10T19:28:06.066Z,8.38
2023-05-10T19:30:35.383Z,9.40
2023-05-10T19:33:06.083Z,10.00
2023-05-10T19:35:36.218Z,9.48
2023-05-10T19:38:06.994Z,13.20
2023-05-10T19:40:33.830Z,9.82
2023-05-10T19:43:00.756Z,9.82
2023-05-10T19:45:29.799Z,9.88
2023-05-10T19:48:01.415Z,9.73
2023-05-10T19:50:32.286Z,11.55
2023-05-10T19:53:03.445Z,10.32
2023-05-10T19:55:31.475Z,9.75
2023-05-10T19:57:59.754Z,10.63
2023-05-10T20:00:27.815Z,9.75
2023-05-10T20:02:55.055Z,10.02
2023-05-10T20:05:22.141Z,10.20
2023-05-10T20:07:49.036Z,10.48
2023-05-10T20:10:21.655Z,10.65
2023-05-10T20:12:49.986Z,10.02
2023-05-10T20:15:17.382Z,10.82
2023-05-10T20:17:47.439Z,12.93
2023-05-10T20:20:16.307Z,11.88
2023-05-10T20:22:46.261Z,11.57
2023-05-10T20:25:14.020Z,10.70
2023-05-10T20:27:42.663Z,11.75
2023-05-10T20:30:11.907Z,10.45
2023-05-10T20:32:39.179Z,12.82
2023-05-10T20:35:06.911Z,12.52
2023-05-10T20:37:36.431Z,12.45
2023-05-10T20:40:03.456Z,13.85
2023-05-10T20:42:30.334Z,13.45
2023-05-10T20:44:58.739Z,14.02
2023-05-10T20:47:28.199Z,13.10
2023-05-10T20:50:09.169Z,15.73
2023-05-10T20:52:36.203Z,12.88
2023-05-10T20:55:03.004Z,12.93
2023-05-10T20:57:30.321Z,16.15
2023-05-10T20:59:59.487Z,15.93
2023-05-10T21:02:28.375Z,13.52
2023-05-10T21:04:57.758Z,13.27
2023-05-10T21:07:25.191Z,16.23
2023-05-10T21:09:52.309Z,15.02
2023-05-10T21:12:19.289Z,14.63
2023-05-10T21:14:46.206Z,13.48
2023-05-10T21:17:23.592Z,13.68
2023-05-10T21:19:58.669Z,13.93
2023-05-10T21:22:28.467Z,14.45
2023-05-10T21:24:55.392Z,13.82
2023-05-10T21:27:24.694Z,13.82
2023-05-10T21:29:51.530Z,14.02
2023-05-10T21:32:18.820Z,14.18
2023-05-10T21:34:47.129Z,15.98
2023-05-10T21:37:17.428Z,15.93
2023-05-10T21:39:44.202Z,17.10
2023-05-10T21:42:10.964Z,16.58
2023-05-10T21:44:40.689Z,15.75
2023-05-10T21:47:07.423Z,20.05
2023-05-10T21:49:34.262Z,15.73
2023-05-10T21:52:02.409Z,17.60
2023-05-10T21:54:29.387Z,16.05
2023-05-10T21:56:58.134Z,16.98
2023-05-10T21:59:25.005Z,23.95
2023-05-10T22:01:51.829Z,17.35
2023-05-10T22:04:18.532Z,21.50
2023-05-10T22:06:45.249Z,17.90
2023-05-10T22:09:13.361Z,17.90
2023-05-10T22:11:40.039Z,17.42
2023-05-10T22:14:06.822Z,18.77
2023-05-10T22:16:33.646Z,20.17
2023-05-10T22:19:00.603Z,17.48
2023-05-10T22:21:32.293Z,17.33
2023-05-10T22:24:02.264Z,18.52
2023-05-10T22:26:31.799Z,17.40
2023-05-10T22:29:00.041Z,21.10
2023-05-10T22:31:29.250Z,20.55
2023-05-10T22:33:56.023Z,19.65
2023-05-10T22:36:25.483Z,18.45
2023-05-10T22:38:52.177Z,16.30
2023-05-10T22:41:19.327Z,19.20
2023-05-10T22:43:49.812Z,16.08
2023-05-10T22:46:16.715Z,16.95
2023-05-10T22:48:43.461Z,18.27
2023-05-10T22:51:10.478Z,16.35
2023-05-10T22:53:37.465Z,16.48
2023-05-10T22:56:04.632Z,19.48
2023-05-10T22:58:31.538Z,24.88
2023-05-10T23:00:59.956Z,23.65
2023-05-10T23:03:26.973Z,19.67
2023-05-10T23:05:53.914Z,19.02
2023-05-10T23:08:20.669Z,20.20
2023-05-10T23:10:47.395Z,18.65
2023-05-10T23:13:14.217Z,17.83
2023-05-10T23:15:40.807Z,18.13
2023-05-10T23:18:12.027Z,19.10
2023-05-10T23:20:40.814Z,19.75
2023-05-10T23:23:07.559Z,16.63
2023-05-10T23:25:35.580Z,17.17
2023-05-10T23:28:05.062Z,17.70
2023-05-10T23:30:31.767Z,17.65
2023-05-10T23:33:00.185Z,19.35
2023-05-10T23:35:28.495Z,19.10
2023-05-10T23:37:55.284Z,18.52
2023-05-10T23:40:22.055Z,21.08
2023-05-10T23:42:48.813Z,22.73
2023-05-10T23:45:15.681Z,22.27
2023-05-10T23:47:42.356Z,18.33
2023-05-10T23:50:10.530Z,16.75
2023-05-10T23:52:41.019Z,19.42
2023-05-10T23:55:08.808Z,17.83
2023-05-10T23:57:35.510Z,15.60
